sensor_id;sensor_type;location;lat;lon;timestamp;P1;durP1;ratioP1;P2;durP2;ratioP2
444;SDS011;209;48.774;9.238;2022-09-01T00:01:44;3.33;;;3.13;;
444;SDS011;209;48.774;9.238;2022-09-01T00:04:31;8.80;;;5.87;;
444;SDS011;209;48.774;9.238;2022-09-01T00:07:23;6.20;;;5.30;;
444;SDS011;209;48.774;9.238;2022-09-01T00:10:11;5.20;;;4.90;;
444;SDS011;209;48.774;9.238;2022-09-01T00:13:00;3.50;;;3.30;;
444;SDS011;209;48.774;9.238;2022-09-01T00:15:51;4.30;;;4.00;;
444;SDS011;209;48.774;9.238;2022-09-01T00:18:39;3.77;;;3.63;;
444;SDS011;209;48.774;9.238;2022-09-01T00:21:32;8.10;;;3.50;;
444;SDS011;209;48.774;9.238;2022-09-01T00:24:20;3.33;;;2.83;;
444;SDS011;209;48.774;9.238;2022-09-01T00:27:10;4.77;;;2.60;;
444;SDS011;209;48.774;9.238;2022-09-01T00:29:59;4.10;;;3.47;;
444;SDS011;209;48.774;9.238;2022-09-01T00:32:47;4.43;;;2.50;;
444;SDS011;209;48.774;9.238;2022-09-01T00:35:34;3.87;;;3.20;;
444;SDS011;209;48.774;9.238;2022-09-01T00:38:22;7.07;;;3.60;;
444;SDS011;209;48.774;9.238;2022-09-01T00:41:10;4.70;;;2.57;;
444;SDS011;209;48.774;9.238;2022-09-01T00:43:58;4.77;;;4.00;;
444;SDS011;209;48.774;9.238;2022-09-01T00:46:48;8.60;;;5.37;;
444;SDS011;209;48.774;9.238;2022-09-01T00:49:38;5.13;;;3.47;;
444;SDS011;209;48.774;9.238;2022-09-01T00:52:27;4.60;;;3.80;;
444;SDS011;209;48.774;9.238;2022-09-01T00:55:16;3.40;;;3.20;;
444;SDS011;209;48.774;9.238;2022-09-01T00:58:05;3.00;;;2.80;;
444;SDS011;209;48.774;9.238;2022-09-01T01:00:53;4.47;;;3.73;;
444;SDS011;209;48.774;9.238;2022-09-01T01:03:42;2.90;;;2.70;;
444;SDS011;209;48.774;9.238;2022-09-01T01:06:31;3.80;;;1.93;;
444;SDS011;209;48.774;9.238;2022-09-01T01:09:19;2.70;;;2.20;;
444;SDS011;209;48.774;9.238;2022-09-01T01:12:08;4.17;;;3.13;;
444;SDS011;209;48.774;9.238;2022-09-01T01:15:03;9.13;;;3.30;;
444;SDS011;209;48.774;9.238;2022-09-01T01:17:51;5.77;;;3.70;;
444;SDS011;209;48.774;9.238;2022-09-01T01:20:40;4.23;;;3.00;;
444;SDS011;209;48.774;9.238;2022-09-01T01:23:49;3.57;;;3.23;;
444;SDS011;209;48.774;9.238;2022-09-01T01:26:41;5.93;;;5.63;;
444;SDS011;209;48.774;9.238;2022-09-01T01:29:30;4.90;;;3.77;;
444;SDS011;209;48.774;9.238;2022-09-01T01:32:18;4.37;;;2.80;;
444;SDS011;209;48.774;9.238;2022-09-01T01:35:06;3.50;;;2.43;;
444;SDS011;209;48.774;9.238;2022-09-01T01:37:57;3.03;;;2.83;;
444;SDS011;209;48.774;9.238;2022-09-01T01:40:46;3.30;;;2.67;;
444;SDS011;209;48.774;9.238;2022-09-01T01:43:35;3.20;;;2.07;;
444;SDS011;209;48.774;9.238;2022-09-01T01:46:23;5.40;;;3.33;;
444;SDS011;209;48.774;9.238;2022-09-01T01:49:11;4.73;;;3.17;;
444;SDS011;209;48.774;9.238;2022-09-01T01:52:06;3.93;;;3.17;;
444;SDS011;209;48.774;9.238;2022-09-01T01:54:54;3.63;;;3.17;;
444;SDS011;209;48.774;9.238;2022-09-01T01:57:42;6.67;;;5.20;;
444;SDS011;209;48.774;9.238;2022-09-01T02:00:35;3.03;;;2.83;;
444;SDS011;209;48.774;9.238;2022-09-01T02:03:23;3.57;;;3.37;;
444;SDS011;209;48.774;9.238;2022-09-01T02:06:13;4.83;;;4.23;;
444;SDS011;209;48.774;9.238;2022-09-01T02:09:06;3.80;;;3.60;;
444;SDS011;209;48.774;9.238;2022-09-01T02:11:53;4.23;;;2.80;;
444;SDS011;209;48.774;9.238;2022-09-01T02:14:41;4.40;;;3.93;;
444;SDS011;209;48.774;9.238;2022-09-01T02:17:30;6.00;;;4.70;;
444;SDS011;209;48.774;9.238;2022-09-01T02:20:18;3.57;;;2.97;;
444;SDS011;209;48.774;9.238;2022-09-01T02:23:09;4.00;;;3.80;;
444;SDS011;209;48.774;9.238;2022-09-01T02:25:58;4.90;;;3.10;;
444;SDS011;209;48.774;9.238;2022-09-01T02:28:47;5.23;;;3.90;;
444;SDS011;209;48.774;9.238;2022-09-01T02:31:35;4.50;;;2.90;;
444;SDS011;209;48.774;9.238;2022-09-01T02:34:25;3.70;;;3.17;;
444;SDS011;209;48.774;9.238;2022-09-01T02:37:15;4.63;;;2.87;;
444;SDS011;209;48.774;9.238;2022-09-01T02:40:03;4.17;;;3.30;;
444;SDS011;209;48.774;9.238;2022-09-01T02:42:50;4.73;;;2.63;;
444;SDS011;209;48.774;9.238;2022-09-01T03:29:21;4.23;;;3.70;;
444;SDS011;209;48.774;9.238;2022-09-01T03:32:09;3.50;;;3.30;;
444;SDS011;209;48.774;9.238;2022-09-01T03:37:38;5.60;;;3.80;;
444;SDS011;209;48.774;9.238;2022-09-01T03:40:31;2.47;;;2.27;;
444;SDS011;209;48.774;9.238;2022-09-01T03:43:20;4.13;;;3.20;;
444;SDS011;209;48.774;9.238;2022-09-01T03:46:13;3.30;;;2.30;;
444;SDS011;209;48.774;9.238;2022-09-01T03:49:07;3.90;;;2.10;;
444;SDS011;209;48.774;9.238;2022-09-01T03:52:00;4.90;;;3.27;;
444;SDS011;209;48.774;9.238;2022-09-01T03:54:47;4.90;;;3.20;;
444;SDS011;209;48.774;9.238;2022-09-01T03:57:39;3.60;;;3.40;;
444;SDS011;209;48.774;9.238;2022-09-01T04:00:28;4.07;;;2.60;;
444;SDS011;209;48.774;9.238;2022-09-01T04:03:18;3.40;;;3.20;;
444;SDS011;209;48.774;9.238;2022-09-01T04:06:10;5.20;;;4.90;;
444;SDS011;209;48.774;9.238;2022-09-01T04:08:58;5.40;;;3.90;;
444;SDS011;209;48.774;9.238;2022-09-01T04:11:50;5.47;;;4.63;;
444;SDS011;209;48.774;9.238;2022-09-01T04:14:39;4.43;;;3.90;;
444;SDS011;209;48.774;9.238;2022-09-01T04:17:26;5.97;;;4.40;;
444;SDS011;209;48.774;9.238;2022-09-01T04:20:33;4.73;;;4.43;;
444;SDS011;209;48.774;9.238;2022-09-01T04:23:33;7.43;;;6.03;;
444;SDS011;209;48.774;9.238;2022-09-01T04:26:26;3.73;;;3.23;;
444;SDS011;209;48.774;9.238;2022-09-01T04:29:16;4.30;;;4.03;;
444;SDS011;209;48.774;9.238;2022-09-01T04:32:11;4.47;;;3.73;;
444;SDS011;209;48.774;9.238;2022-09-01T04:43:03;3.67;;;3.47;;
444;SDS011;209;48.774;9.238;2022-09-01T04:45:51;5.10;;;3.37;;
444;SDS011;209;48.774;9.238;2022-09-01T04:48:40;4.87;;;4.17;;
444;SDS011;209;48.774;9.238;2022-09-01T04:54:00;4.50;;;4.30;;
444;SDS011;209;48.774;9.238;2022-09-01T04:56:49;6.70;;;5.10;;
444;SDS011;209;48.774;9.238;2022-09-01T04:59:39;4.57;;;3.33;;
444;SDS011;209;48.774;9.238;2022-09-01T05:02:27;3.23;;;2.77;;
444;SDS011;209;48.774;9.238;2022-09-01T05:05:15;9.33;;;3.70;;
444;SDS011;209;48.774;9.238;2022-09-01T05:08:02;10.97;;;4.43;;
444;SDS011;209;48.774;9.238;2022-09-01T05:10:52;3.13;;;2.97;;
444;SDS011;209;48.774;9.238;2022-09-01T05:13:52;5.43;;;3.40;;
444;SDS011;209;48.774;9.238;2022-09-01T05:16:43;4.07;;;3.83;;
444;SDS011;209;48.774;9.238;2022-09-01T05:19:31;7.87;;;4.30;;
444;SDS011;209;48.774;9.238;2022-09-01T05:22:19;6.17;;;3.43;;
444;SDS011;209;48.774;9.238;2022-09-01T05:25:14;5.57;;;3.60;;
444;SDS011;209;48.774;9.238;2022-09-01T05:28:05;3.00;;;2.47;;
444;SDS011;209;48.774;9.238;2022-09-01T05:30:54;3.53;;;2.73;;
444;SDS011;209;48.774;9.238;2022-09-01T05:33:44;4.10;;;3.30;;
444;SDS011;209;48.774;9.238;2022-09-01T05:36:34;5.87;;;3.97;;
444;SDS011;209;48.774;9.238;2022-09-01T05:39:25;4.57;;;2.97;;
444;SDS011;209;48.774;9.238;2022-09-01T05:42:13;4.80;;;3.77;;
444;SDS011;209;48.774;9.238;2022-09-01T05:45:00;7.67;;;4.70;;
444;SDS011;209;48.774;9.238;2022-09-01T05:47:48;3.53;;;3.33;;
444;SDS011;209;48.774;9.238;2022-09-01T06:12:00;7.40;;;5.13;;
444;SDS011;209;48.774;9.238;2022-09-01T06:14:48;5.40;;;3.93;;
444;SDS011;209;48.774;9.238;2022-09-01T06:17:38;5.90;;;5.13;;
444;SDS011;209;48.774;9.238;2022-09-01T06:20:25;5.50;;;4.67;;
444;SDS011;209;48.774;9.238;2022-09-01T06:23:14;3.80;;;3.40;;
444;SDS011;209;48.774;9.238;2022-09-01T06:26:03;5.10;;;4.10;;
444;SDS011;209;48.774;9.238;2022-09-01T06:28:55;5.03;;;3.33;;
444;SDS011;209;48.774;9.238;2022-09-01T06:31:42;4.70;;;3.70;;
444;SDS011;209;48.774;9.238;2022-09-01T06:34:31;6.90;;;4.43;;
444;SDS011;209;48.774;9.238;2022-09-01T06:37:20;5.13;;;4.83;;
444;SDS011;209;48.774;9.238;2022-09-01T06:40:11;5.10;;;3.97;;
444;SDS011;209;48.774;9.238;2022-09-01T06:43:02;8.43;;;4.60;;
444;SDS011;209;48.774;9.238;2022-09-01T06:45:54;5.13;;;3.70;;
444;SDS011;209;48.774;9.238;2022-09-01T06:48:43;4.10;;;3.87;;
444;SDS011;209;48.774;9.238;2022-09-01T06:51:31;7.50;;;4.40;;
444;SDS011;209;48.774;9.238;2022-09-01T06:54:19;5.03;;;4.30;;
444;SDS011;209;48.774;9.238;2022-09-01T06:57:07;4.93;;;3.47;;
444;SDS011;209;48.774;9.238;2022-09-01T06:59:56;4.73;;;4.10;;
444;SDS011;209;48.774;9.238;2022-09-01T07:02:45;4.17;;;3.20;;
444;SDS011;209;48.774;9.238;2022-09-01T07:06:09;7.00;;;4.67;;
444;SDS011;209;48.774;9.238;2022-09-01T07:09:19;6.17;;;3.97;;
444;SDS011;209;48.774;9.238;2022-09-01T07:12:30;9.37;;;4.37;;
444;SDS011;209;48.774;9.238;2022-09-01T07:15:17;6.90;;;4.50;;
444;SDS011;209;48.774;9.238;2022-09-01T07:18:07;5.20;;;4.23;;
444;SDS011;209;48.774;9.238;2022-09-01T07:20:57;4.37;;;2.83;;
444;SDS011;209;48.774;9.238;2022-09-01T07:23:45;7.73;;;4.10;;
444;SDS011;209;48.774;9.238;2022-09-01T07:26:33;4.00;;;3.73;;
444;SDS011;209;48.774;9.238;2022-09-01T07:29:21;3.53;;;2.70;;
444;SDS011;209;48.774;9.238;2022-09-01T07:32:11;3.83;;;2.53;;
444;SDS011;209;48.774;9.238;2022-09-01T07:35:01;4.33;;;2.77;;
444;SDS011;209;48.774;9.238;2022-09-01T07:37:50;3.93;;;2.90;;
444;SDS011;209;48.774;9.238;2022-09-01T07:40:40;3.57;;;2.93;;
444;SDS011;209;48.774;9.238;2022-09-01T07:43:49;4.00;;;3.20;;
444;SDS011;209;48.774;9.238;2022-09-01T07:46:56;4.43;;;2.90;;
444;SDS011;209;48.774;9.238;2022-09-01T07:49:44;4.27;;;3.00;;
444;SDS011;209;48.774;9.238;2022-09-01T07:52:33;3.13;;;2.23;;
444;SDS011;209;48.774;9.238;2022-09-01T07:55:27;2.73;;;1.90;;
444;SDS011;209;48.774;9.238;2022-09-01T07:58:17;2.07;;;1.80;;
444;SDS011;209;48.774;9.238;2022-09-01T08:01:09;3.33;;;2.23;;
444;SDS011;209;48.774;9.238;2022-09-01T08:03:59;3.73;;;1.53;;
444;SDS011;209;48.774;9.238;2022-09-01T08:06:48;2.70;;;2.10;;
444;SDS011;209;48.774;9.238;2022-09-01T08:09:37;2.77;;;2.63;;
444;SDS011;209;48.774;9.238;2022-09-01T08:12:26;1.93;;;1.67;;
444;SDS011;209;48.774;9.238;2022-09-01T08:15:14;2.30;;;1.87;;
444;SDS011;209;48.774;9.238;2022-09-01T08:18:04;2.10;;;1.80;;
444;SDS011;209;48.774;9.238;2022-09-01T08:20:52;2.60;;;1.83;;
444;SDS011;209;48.774;9.238;2022-09-01T08:23:54;2.70;;;1.70;;
444;SDS011;209;48.774;9.238;2022-09-01T08:26:47;1.80;;;1.70;;
444;SDS011;209;48.774;9.238;2022-09-01T08:29:35;2.97;;;2.77;;
444;SDS011;209;48.774;9.238;2022-09-01T08:32:23;3.53;;;2.73;;
444;SDS011;209;48.774;9.238;2022-09-01T08:35:11;2.00;;;1.80;;
444;SDS011;209;48.774;9.238;2022-09-01T08:38:01;2.90;;;1.23;;
444;SDS011;209;48.774;9.238;2022-09-01T08:40:50;2.60;;;2.40;;
444;SDS011;209;48.774;9.238;2022-09-01T08:43:43;3.10;;;2.70;;
444;SDS011;209;48.774;9.238;2022-09-01T08:46:35;2.60;;;1.80;;
444;SDS011;209;48.774;9.238;2022-09-01T08:49:24;4.13;;;1.77;;
444;SDS011;209;48.774;9.238;2022-09-01T08:52:29;2.20;;;1.60;;
444;SDS011;209;48.774;9.238;2022-09-01T08:55:20;1.93;;;1.87;;
444;SDS011;209;48.774;9.238;2022-09-01T08:58:13;2.70;;;1.60;;
444;SDS011;209;48.774;9.238;2022-09-01T09:01:29;3.80;;;2.90;;
444;SDS011;209;48.774;9.238;2022-09-01T09:04:21;3.20;;;2.83;;
444;SDS011;209;48.774;9.238;2022-09-01T09:07:17;2.37;;;2.10;;
444;SDS011;209;48.774;9.238;2022-09-01T09:10:10;2.67;;;2.27;;
444;SDS011;209;48.774;9.238;2022-09-01T09:13:03;3.20;;;1.80;;
444;SDS011;209;48.774;9.238;2022-09-01T09:15:55;2.00;;;1.33;;
444;SDS011;209;48.774;9.238;2022-09-01T09:18:47;4.17;;;2.20;;
444;SDS011;209;48.774;9.238;2022-09-01T09:21:36;1.90;;;1.80;;
444;SDS011;209;48.774;9.238;2022-09-01T09:24:26;1.60;;;1.30;;
444;SDS011;209;48.774;9.238;2022-09-01T09:27:18;2.20;;;2.10;;
444;SDS011;209;48.774;9.238;2022-09-01T09:30:07;4.60;;;1.50;;
444;SDS011;209;48.774;9.238;2022-09-01T09:32:57;1.37;;;1.20;;
444;SDS011;209;48.774;9.238;2022-09-01T09:35:50;2.63;;;1.77;;
444;SDS011;209;48.774;9.238;2022-09-01T09:38:38;2.07;;;1.60;;
444;SDS011;209;48.774;9.238;2022-09-01T09:41:26;1.80;;;1.70;;
444;SDS011;209;48.774;9.238;2022-09-01T09:44:19;1.80;;;1.47;;
444;SDS011;209;48.774;9.238;2022-09-01T09:47:07;2.03;;;1.43;;
444;SDS011;209;48.774;9.238;2022-09-01T09:49:56;1.53;;;1.30;;
444;SDS011;209;48.774;9.238;2022-09-01T09:53:10;1.67;;;1.30;;
444;SDS011;209;48.774;9.238;2022-09-01T09:56:00;3.27;;;1.70;;
444;SDS011;209;48.774;9.238;2022-09-01T09:58:49;1.27;;;1.17;;
444;SDS011;209;48.774;9.238;2022-09-01T10:01:36;2.10;;;1.30;;
444;SDS011;209;48.774;9.238;2022-09-01T10:04:32;1.97;;;1.90;;
444;SDS011;209;48.774;9.238;2022-09-01T10:07:24;1.90;;;1.40;;
444;SDS011;209;48.774;9.238;2022-09-01T10:10:26;2.03;;;1.17;;
444;SDS011;209;48.774;9.238;2022-09-01T10:13:16;1.80;;;1.30;;
444;SDS011;209;48.774;9.238;2022-09-01T10:16:05;2.30;;;1.80;;
444;SDS011;209;48.774;9.238;2022-09-01T10:18:53;3.23;;;1.27;;
444;SDS011;209;48.774;9.238;2022-09-01T10:21:45;1.50;;;1.40;;
444;SDS011;209;48.774;9.238;2022-09-01T10:24:33;1.63;;;0.90;;
444;SDS011;209;48.774;9.238;2022-09-01T10:27:23;1.57;;;1.10;;
444;SDS011;209;48.774;9.238;2022-09-01T11:32:36;2.47;;;1.50;;
444;SDS011;209;48.774;9.238;2022-09-01T11:35:25;0.97;;;0.93;;
444;SDS011;209;48.774;9.238;2022-09-01T11:38:15;1.67;;;1.57;;
444;SDS011;209;48.774;9.238;2022-09-01T11:41:04;1.57;;;1.23;;
444;SDS011;209;48.774;9.238;2022-09-01T11:43:53;1.90;;;1.23;;
444;SDS011;209;48.774;9.238;2022-09-01T11:46:42;1.33;;;1.00;;
444;SDS011;209;48.774;9.238;2022-09-01T11:49:32;1.10;;;0.70;;
444;SDS011;209;48.774;9.238;2022-09-01T11:52:21;1.80;;;1.27;;
444;SDS011;209;48.774;9.238;2022-09-01T11:55:12;1.50;;;1.17;;
444;SDS011;209;48.774;9.238;2022-09-01T11:58:02;2.00;;;1.70;;
444;SDS011;209;48.774;9.238;2022-09-01T12:00:50;5.50;;;1.97;;
444;SDS011;209;48.774;9.238;2022-09-01T12:03:37;1.50;;;1.43;;
444;SDS011;209;48.774;9.238;2022-09-01T12:06:27;1.53;;;1.33;;
444;SDS011;209;48.774;9.238;2022-09-01T12:09:15;1.87;;;1.20;;
444;SDS011;209;48.774;9.238;2022-09-01T12:12:03;1.53;;;1.43;;
444;SDS011;209;48.774;9.238;2022-09-01T12:14:54;1.93;;;1.73;;
444;SDS011;209;48.774;9.238;2022-09-01T12:17:42;1.97;;;1.60;;
444;SDS011;209;48.774;9.238;2022-09-01T12:20:30;1.43;;;0.97;;
444;SDS011;209;48.774;9.238;2022-09-01T12:23:25;1.47;;;1.17;;
444;SDS011;209;48.774;9.238;2022-09-01T12:26:14;1.90;;;1.27;;
444;SDS011;209;48.774;9.238;2022-09-01T12:29:03;1.23;;;0.80;;
444;SDS011;209;48.774;9.238;2022-09-01T12:31:51;2.27;;;1.53;;
444;SDS011;209;48.774;9.238;2022-09-01T12:34:40;1.70;;;1.10;;
444;SDS011;209;48.774;9.238;2022-09-01T12:37:28;2.20;;;1.30;;
444;SDS011;209;48.774;9.238;2022-09-01T12:40:25;1.40;;;1.40;;
444;SDS011;209;48.774;9.238;2022-09-01T12:43:26;1.27;;;0.87;;
444;SDS011;209;48.774;9.238;2022-09-01T12:46:37;3.07;;;1.20;;
444;SDS011;209;48.774;9.238;2022-09-01T12:49:22;1.80;;;1.00;;
444;SDS011;209;48.774;9.238;2022-09-01T12:52:13;1.80;;;1.37;;
444;SDS011;209;48.774;9.238;2022-09-01T12:55:08;1.37;;;0.97;;
444;SDS011;209;48.774;9.238;2022-09-01T12:58:01;1.60;;;1.00;;
444;SDS011;209;48.774;9.238;2022-09-01T13:00:56;1.37;;;1.23;;
444;SDS011;209;48.774;9.238;2022-09-01T13:06:46;2.37;;;0.90;;
444;SDS011;209;48.774;9.238;2022-09-01T13:09:33;1.90;;;1.50;;
444;SDS011;209;48.774;9.238;2022-09-01T13:12:22;1.70;;;0.80;;
444;SDS011;209;48.774;9.238;2022-09-01T13:15:11;2.57;;;2.00;;
444;SDS011;209;48.774;9.238;2022-09-01T13:17:59;1.73;;;1.10;;
444;SDS011;209;48.774;9.238;2022-09-01T13:20:46;2.13;;;1.97;;
444;SDS011;209;48.774;9.238;2022-09-01T13:23:34;1.53;;;1.10;;
444;SDS011;209;48.774;9.238;2022-09-01T13:26:22;2.00;;;1.30;;
444;SDS011;209;48.774;9.238;2022-09-01T13:29:10;2.67;;;1.40;;
444;SDS011;209;48.774;9.238;2022-09-01T13:31:59;1.60;;;1.00;;
444;SDS011;209;48.774;9.238;2022-09-01T13:34:48;2.90;;;1.93;;
444;SDS011;209;48.774;9.238;2022-09-01T13:37:36;1.77;;;1.50;;
444;SDS011;209;48.774;9.238;2022-09-01T13:40:26;1.50;;;1.30;;
444;SDS011;209;48.774;9.238;2022-09-01T13:43:16;2.07;;;1.93;;
444;SDS011;209;48.774;9.238;2022-09-01T13:46:04;2.07;;;1.20;;
444;SDS011;209;48.774;9.238;2022-09-01T13:48:53;1.90;;;1.13;;
444;SDS011;209;48.774;9.238;2022-09-01T13:51:41;2.30;;;1.53;;
444;SDS011;209;48.774;9.238;2022-09-01T13:54:29;0.80;;;0.50;;
444;SDS011;209;48.774;9.238;2022-09-01T13:57:16;1.50;;;1.03;;
444;SDS011;209;48.774;9.238;2022-09-01T14:00:05;1.73;;;1.10;;
444;SDS011;209;48.774;9.238;2022-09-01T14:02:59;3.47;;;1.73;;
444;SDS011;209;48.774;9.238;2022-09-01T14:05:49;1.20;;;1.00;;
444;SDS011;209;48.774;9.238;2022-09-01T14:08:37;1.93;;;1.27;;
444;SDS011;209;48.774;9.238;2022-09-01T14:11:24;1.33;;;1.00;;
444;SDS011;209;48.774;9.238;2022-09-01T14:14:14;1.80;;;0.77;;
444;SDS011;209;48.774;9.238;2022-09-01T14:17:01;1.40;;;1.30;;
444;SDS011;209;48.774;9.238;2022-09-01T14:19:49;1.97;;;1.70;;
444;SDS011;209;48.774;9.238;2022-09-01T14:22:38;2.90;;;1.60;;
444;SDS011;209;48.774;9.238;2022-09-01T14:25:26;0.93;;;0.80;;
444;SDS011;209;48.774;9.238;2022-09-01T14:28:14;1.60;;;1.10;;
444;SDS011;209;48.774;9.238;2022-09-01T14:31:05;1.20;;;1.00;;
444;SDS011;209;48.774;9.238;2022-09-01T14:33:53;1.07;;;0.73;;
444;SDS011;209;48.774;9.238;2022-09-01T14:36:41;1.53;;;0.97;;
444;SDS011;209;48.774;9.238;2022-09-01T14:39:30;1.40;;;0.90;;
444;SDS011;209;48.774;9.238;2022-09-01T14:42:18;2.03;;;1.13;;
444;SDS011;209;48.774;9.238;2022-09-01T14:45:06;1.80;;;1.33;;
444;SDS011;209;48.774;9.238;2022-09-01T14:47:56;1.87;;;1.40;;
444;SDS011;209;48.774;9.238;2022-09-01T14:50:46;1.10;;;0.90;;
444;SDS011;209;48.774;9.238;2022-09-01T14:53:35;1.20;;;1.10;;
444;SDS011;209;48.774;9.238;2022-09-01T14:56:24;1.47;;;1.30;;
444;SDS011;209;48.774;9.238;2022-09-01T14:59:11;1.83;;;1.80;;
444;SDS011;209;48.774;9.238;2022-09-01T15:01:59;1.27;;;1.10;;
444;SDS011;209;48.774;9.238;2022-09-01T15:04:47;1.03;;;0.80;;
444;SDS011;209;48.774;9.238;2022-09-01T15:07:34;1.30;;;1.10;;
444;SDS011;209;48.774;9.238;2022-09-01T15:10:23;3.97;;;1.50;;
444;SDS011;209;48.774;9.238;2022-09-01T15:13:12;1.37;;;1.27;;
444;SDS011;209;48.774;9.238;2022-09-01T15:15:59;1.40;;;0.90;;
444;SDS011;209;48.774;9.238;2022-09-01T15:18:47;1.30;;;1.10;;
444;SDS011;209;48.774;9.238;2022-09-01T15:21:35;1.80;;;1.20;;
444;SDS011;209;48.774;9.238;2022-09-01T15:24:23;1.40;;;0.77;;
444;SDS011;209;48.774;9.238;2022-09-01T15:27:10;1.27;;;1.10;;
444;SDS011;209;48.774;9.238;2022-09-01T15:29:59;2.07;;;1.90;;
444;SDS011;209;48.774;9.238;2022-09-01T15:32:48;1.50;;;0.83;;
444;SDS011;209;48.774;9.238;2022-09-01T15:35:36;1.90;;;1.20;;
444;SDS011;209;48.774;9.238;2022-09-01T15:38:23;1.43;;;0.97;;
444;SDS011;209;48.774;9.238;2022-09-01T15:41:14;1.47;;;0.90;;
444;SDS011;209;48.774;9.238;2022-09-01T15:44:03;1.33;;;0.93;;
444;SDS011;209;48.774;9.238;2022-09-01T15:46:52;1.47;;;1.13;;
444;SDS011;209;48.774;9.238;2022-09-01T15:49:40;2.10;;;1.37;;
444;SDS011;209;48.774;9.238;2022-09-01T15:52:27;1.63;;;1.03;;
444;SDS011;209;48.774;9.238;2022-09-01T15:55:16;1.30;;;0.77;;
444;SDS011;209;48.774;9.238;2022-09-01T15:58:03;1.80;;;1.80;;
444;SDS011;209;48.774;9.238;2022-09-01T16:00:51;1.90;;;1.00;;
444;SDS011;209;48.774;9.238;2022-09-01T16:03:41;1.60;;;1.60;;
444;SDS011;209;48.774;9.238;2022-09-01T16:06:28;1.50;;;1.20;;
444;SDS011;209;48.774;9.238;2022-09-01T16:09:16;2.23;;;1.50;;
444;SDS011;209;48.774;9.238;2022-09-01T16:12:05;1.40;;;1.00;;
444;SDS011;209;48.774;9.238;2022-09-01T16:14:54;1.50;;;1.47;;
444;SDS011;209;48.774;9.238;2022-09-01T16:20:52;1.87;;;1.57;;
444;SDS011;209;48.774;9.238;2022-09-01T16:23:41;2.43;;;1.67;;
444;SDS011;209;48.774;9.238;2022-09-01T16:26:30;2.70;;;1.83;;
444;SDS011;209;48.774;9.238;2022-09-01T16:29:20;2.30;;;0.87;;
444;SDS011;209;48.774;9.238;2022-09-01T16:32:13;1.47;;;1.07;;
444;SDS011;209;48.774;9.238;2022-09-01T16:35:01;1.10;;;0.83;;
444;SDS011;209;48.774;9.238;2022-09-01T16:37:52;2.77;;;1.40;;
444;SDS011;209;48.774;9.238;2022-09-01T16:40:46;1.97;;;1.67;;
444;SDS011;209;48.774;9.238;2022-09-01T16:43:44;1.60;;;1.10;;
444;SDS011;209;48.774;9.238;2022-09-01T16:46:38;1.90;;;1.70;;
444;SDS011;209;48.774;9.238;2022-09-01T16:49:33;2.03;;;1.43;;
444;SDS011;209;48.774;9.238;2022-09-01T16:52:25;1.73;;;0.90;;
444;SDS011;209;48.774;9.238;2022-09-01T16:55:19;1.53;;;1.50;;
444;SDS011;209;48.774;9.238;2022-09-01T16:58:13;2.00;;;1.30;;
444;SDS011;209;48.774;9.238;2022-09-01T17:01:10;1.50;;;0.93;;
444;SDS011;209;48.774;9.238;2022-09-01T17:04:15;1.40;;;1.00;;
444;SDS011;209;48.774;9.238;2022-09-01T17:07:10;2.43;;;1.90;;
444;SDS011;209;48.774;9.238;2022-09-01T17:10:02;2.17;;;1.50;;
444;SDS011;209;48.774;9.238;2022-09-01T17:12:53;0.97;;;0.70;;
444;SDS011;209;48.774;9.238;2022-09-01T17:15:41;2.20;;;1.27;;
444;SDS011;209;48.774;9.238;2022-09-01T17:18:36;1.63;;;1.17;;
444;SDS011;209;48.774;9.238;2022-09-01T17:21:29;1.73;;;1.43;;
444;SDS011;209;48.774;9.238;2022-09-01T17:24:22;2.00;;;1.90;;
444;SDS011;209;48.774;9.238;2022-09-01T17:27:16;2.20;;;1.37;;
444;SDS011;209;48.774;9.238;2022-09-01T17:30:06;1.97;;;1.87;;
444;SDS011;209;48.774;9.238;2022-09-01T17:32:58;1.30;;;1.17;;
444;SDS011;209;48.774;9.238;2022-09-01T17:36:02;1.20;;;1.10;;
444;SDS011;209;48.774;9.238;2022-09-01T17:38:55;1.10;;;0.90;;
444;SDS011;209;48.774;9.238;2022-09-01T17:41:47;1.33;;;1.23;;
444;SDS011;209;48.774;9.238;2022-09-01T17:44:38;2.43;;;1.30;;
444;SDS011;209;48.774;9.238;2022-09-01T17:47:33;1.93;;;1.50;;
444;SDS011;209;48.774;9.238;2022-09-01T17:50:24;1.50;;;1.33;;
444;SDS011;209;48.774;9.238;2022-09-01T17:53:19;1.63;;;1.27;;
444;SDS011;209;48.774;9.238;2022-09-01T17:56:13;2.10;;;1.50;;
444;SDS011;209;48.774;9.238;2022-09-01T17:59:02;1.37;;;1.17;;
444;SDS011;209;48.774;9.238;2022-09-01T18:01:56;1.70;;;1.07;;
444;SDS011;209;48.774;9.238;2022-09-01T18:26:07;1.90;;;1.40;;
444;SDS011;209;48.774;9.238;2022-09-01T18:28:56;0.87;;;0.77;;
444;SDS011;209;48.774;9.238;2022-09-01T18:31:49;1.30;;;1.00;;
444;SDS011;209;48.774;9.238;2022-09-01T18:34:45;4.70;;;2.07;;
444;SDS011;209;48.774;9.238;2022-09-01T18:37:36;2.70;;;1.97;;
444;SDS011;209;48.774;9.238;2022-09-01T18:40:26;3.30;;;2.07;;
444;SDS011;209;48.774;9.238;2022-09-01T18:43:18;1.63;;;1.63;;
444;SDS011;209;48.774;9.238;2022-09-01T18:46:10;1.83;;;1.70;;
444;SDS011;209;48.774;9.238;2022-09-01T18:49:05;1.53;;;1.17;;
444;SDS011;209;48.774;9.238;2022-09-01T18:51:58;1.93;;;1.80;;
444;SDS011;209;48.774;9.238;2022-09-01T18:54:50;2.20;;;1.40;;
444;SDS011;209;48.774;9.238;2022-09-01T18:57:44;1.30;;;1.27;;
444;SDS011;209;48.774;9.238;2022-09-01T19:00:35;1.63;;;1.47;;
444;SDS011;209;48.774;9.238;2022-09-01T19:03:27;1.70;;;1.60;;
444;SDS011;209;48.774;9.238;2022-09-01T19:06:22;2.23;;;2.03;;
444;SDS011;209;48.774;9.238;2022-09-01T19:09:14;2.80;;;1.57;;
444;SDS011;209;48.774;9.238;2022-09-01T19:12:10;2.03;;;1.33;;
444;SDS011;209;48.774;9.238;2022-09-01T19:15:03;1.23;;;1.13;;
444;SDS011;209;48.774;9.238;2022-09-01T19:17:59;2.93;;;2.03;;
444;SDS011;209;48.774;9.238;2022-09-01T19:20:50;3.13;;;1.90;;
444;SDS011;209;48.774;9.238;2022-09-01T19:23:40;2.20;;;1.60;;
444;SDS011;209;48.774;9.238;2022-09-01T19:26:31;3.73;;;2.00;;
444;SDS011;209;48.774;9.238;2022-09-01T19:29:20;3.53;;;1.63;;
444;SDS011;209;48.774;9.238;2022-09-01T19:32:09;1.47;;;1.37;;
444;SDS011;209;48.774;9.238;2022-09-01T19:35:05;1.73;;;1.53;;
444;SDS011;209;48.774;9.238;2022-09-01T19:37:55;3.73;;;1.40;;
444;SDS011;209;48.774;9.238;2022-09-01T19:40:43;2.20;;;1.30;;
444;SDS011;209;48.774;9.238;2022-09-01T19:43:33;1.57;;;1.40;;
444;SDS011;209;48.774;9.238;2022-09-01T19:46:29;1.00;;;1.00;;
444;SDS011;209;48.774;9.238;2022-09-01T19:49:21;1.80;;;1.63;;
444;SDS011;209;48.774;9.238;2022-09-01T19:52:16;4.73;;;1.77;;
444;SDS011;209;48.774;9.238;2022-09-01T19:55:05;2.43;;;2.27;;
444;SDS011;209;48.774;9.238;2022-09-01T19:57:55;1.60;;;1.60;;
444;SDS011;209;48.774;9.238;2022-09-01T20:00:44;1.90;;;1.80;;
444;SDS011;209;48.774;9.238;2022-09-01T20:03:38;1.77;;;1.67;;
444;SDS011;209;48.774;9.238;2022-09-01T20:06:28;1.07;;;1.00;;
444;SDS011;209;48.774;9.238;2022-09-01T20:09:19;1.50;;;1.40;;
444;SDS011;209;48.774;9.238;2022-09-01T20:12:13;1.37;;;1.13;;
444;SDS011;209;48.774;9.238;2022-09-01T20:15:06;1.47;;;1.27;;
444;SDS011;209;48.774;9.238;2022-09-01T20:17:56;2.37;;;1.67;;
444;SDS011;209;48.774;9.238;2022-09-01T20:20:45;1.10;;;1.07;;
444;SDS011;209;48.774;9.238;2022-09-01T20:23:35;1.20;;;1.17;;
444;SDS011;209;48.774;9.238;2022-09-01T20:26:28;1.20;;;0.67;;
444;SDS011;209;48.774;9.238;2022-09-01T20:29:19;1.10;;;0.87;;
444;SDS011;209;48.774;9.238;2022-09-01T20:32:08;1.70;;;1.23;;
444;SDS011;209;48.774;9.238;2022-09-01T20:34:58;1.00;;;0.90;;
444;SDS011;209;48.774;9.238;2022-09-01T20:37:46;2.60;;;1.63;;
444;SDS011;209;48.774;9.238;2022-09-01T20:40:36;5.60;;;1.43;;
444;SDS011;209;48.774;9.238;2022-09-01T20:43:26;1.60;;;1.53;;
444;SDS011;209;48.774;9.238;2022-09-01T20:46:16;1.60;;;1.20;;
444;SDS011;209;48.774;9.238;2022-09-01T20:49:04;3.37;;;2.67;;
444;SDS011;209;48.774;9.238;2022-09-01T20:51:52;1.20;;;1.17;;
444;SDS011;209;48.774;9.238;2022-09-01T20:54:45;2.33;;;1.40;;
444;SDS011;209;48.774;9.238;2022-09-01T20:57:35;1.97;;;1.40;;
444;SDS011;209;48.774;9.238;2022-09-01T21:00:25;1.10;;;1.00;;
444;SDS011;209;48.774;9.238;2022-09-01T21:03:14;1.43;;;1.10;;